Terminal Aerodrome Forecast
Issued by NWS

Home | Current Version | Previous Version | Text Only | Print | Product List | Glossary Off
Versions: 1 2 3 4 5 6 7 8 9 10 11 12 13 14 15 16 17 18 19

000
FTUS43 KUNR 271120
TAFGCC
TAF
KGCC 271120Z 2712/2812 13008KT P6SM BKN007 OVC050
     FM271700 13011KT P6SM OVC015
     FM272100 03010KT 4SM -RA BR OVC007
     FM280400 36007KT 2SM -SN OVC004=

USA.gov is the U.S. government's official web portal to all federal, state and local government web resources and services.